sensor_id;sensor_type;location;lat;lon;timestamp;pressure;altitude;pressure_sealevel;temperature;humidity
22206;BME280;11272;50.104;8.754;2023-05-19T00:01:50;101298.63;;;13.08;47.05
22206;BME280;11272;50.104;8.754;2023-05-19T00:04:17;101297.81;;;13.03;47.31
22206;BME280;11272;50.104;8.754;2023-05-19T00:06:44;101303.19;;;13.00;47.35
22206;BME280;11272;50.104;8.754;2023-05-19T00:09:14;101297.09;;;12.93;47.43
22206;BME280;11272;50.104;8.754;2023-05-19T00:11:40;101304.25;;;12.91;47.77
22206;BME280;11272;50.104;8.754;2023-05-19T00:14:07;101298.91;;;12.91;47.70
22206;BME280;11272;50.104;8.754;2023-05-19T00:16:34;101295.38;;;12.91;47.63
22206;BME280;11272;50.104;8.754;2023-05-19T00:19:02;101300.72;;;12.89;47.84
22206;BME280;11272;50.104;8.754;2023-05-19T00:21:29;101294.50;;;12.89;47.51
22206;BME280;11272;50.104;8.754;2023-05-19T00:23:56;101304.31;;;12.87;47.91
22206;BME280;11272;50.104;8.754;2023-05-19T00:26:23;101300.78;;;12.85;47.87
22206;BME280;11272;50.104;8.754;2023-05-19T00:29:01;101299.91;;;12.84;47.80
22206;BME280;11272;50.104;8.754;2023-05-19T00:31:27;101301.69;;;12.84;47.97
22206;BME280;11272;50.104;8.754;2023-05-19T00:33:55;101301.72;;;12.82;48.03
22206;BME280;11272;50.104;8.754;2023-05-19T00:36:20;101298.22;;;12.80;48.19
22206;BME280;11272;50.104;8.754;2023-05-19T00:38:46;101299.13;;;12.78;48.39
22206;BME280;11272;50.104;8.754;2023-05-19T00:41:12;101294.75;;;12.75;48.22
22206;BME280;11272;50.104;8.754;2023-05-19T00:43:38;101298.31;;;12.73;48.03
22206;BME280;11272;50.104;8.754;2023-05-19T00:46:04;101285.06;;;12.70;48.33
22206;BME280;11272;50.104;8.754;2023-05-19T00:48:31;101283.31;;;12.67;48.55
22206;BME280;11272;50.104;8.754;2023-05-19T00:50:58;101294.91;;;12.64;48.53
22206;BME280;11272;50.104;8.754;2023-05-19T00:53:29;101290.47;;;12.63;48.48
22206;BME280;11272;50.104;8.754;2023-05-19T00:55:57;101288.75;;;12.61;48.48
22206;BME280;11272;50.104;8.754;2023-05-19T00:58:24;101287.00;;;12.60;48.82
22206;BME280;11272;50.104;8.754;2023-05-19T01:00:54;101285.25;;;12.57;48.67
22206;BME280;11272;50.104;8.754;2023-05-19T01:03:30;101280.88;;;12.53;48.80
22206;BME280;11272;50.104;8.754;2023-05-19T01:05:56;101282.72;;;12.50;48.64
22206;BME280;11272;50.104;8.754;2023-05-19T01:08:26;101280.97;;;12.47;48.92
22206;BME280;11272;50.104;8.754;2023-05-19T01:10:52;101275.72;;;12.44;49.17
22206;BME280;11272;50.104;8.754;2023-05-19T01:13:18;101280.16;;;12.42;49.11
22206;BME280;11272;50.104;8.754;2023-05-19T01:16:08;101274.03;;;12.37;49.24
22206;BME280;11272;50.104;8.754;2023-05-19T01:30:17;101269.84;;;12.21;49.33
22206;BME280;11272;50.104;8.754;2023-05-19T01:32:48;101269.84;;;12.21;49.57
22206;BME280;11272;50.104;8.754;2023-05-19T01:35:17;101264.53;;;12.18;49.42
22206;BME280;11272;50.104;8.754;2023-05-19T01:37:44;101271.69;;;12.16;49.39
22206;BME280;11272;50.104;8.754;2023-05-19T01:40:10;101263.78;;;12.11;49.64
22206;BME280;11272;50.104;8.754;2023-05-19T01:42:37;101265.56;;;12.09;49.77
22206;BME280;11272;50.104;8.754;2023-05-19T01:45:06;101269.16;;;12.07;50.09
22206;BME280;11272;50.104;8.754;2023-05-19T01:47:37;101271.84;;;12.04;50.00
22206;BME280;11272;50.104;8.754;2023-05-19T01:50:05;101269.25;;;12.01;49.97
22206;BME280;11272;50.104;8.754;2023-05-19T01:52:31;101277.25;;;11.98;50.15
22206;BME280;11272;50.104;8.754;2023-05-19T01:54:57;101277.31;;;11.95;50.29
22206;BME280;11272;50.104;8.754;2023-05-19T02:00:17;101273.84;;;11.87;50.26
22206;BME280;11272;50.104;8.754;2023-05-19T02:05:22;101281.91;;;11.82;50.42
22206;BME280;11272;50.104;8.754;2023-05-19T02:08:06;101284.59;;;11.80;50.46
22206;BME280;11272;50.104;8.754;2023-05-19T02:10:36;101283.72;;;11.78;50.65
22206;BME280;11272;50.104;8.754;2023-05-19T02:13:08;101282.84;;;11.76;50.46
22206;BME280;11272;50.104;8.754;2023-05-19T02:15:41;101282.91;;;11.73;50.84
22206;BME280;11272;50.104;8.754;2023-05-19T02:18:10;101282.88;;;11.72;50.79
22206;BME280;11272;50.104;8.754;2023-05-19T02:20:38;101289.16;;;11.69;50.69
22206;BME280;11272;50.104;8.754;2023-05-19T02:23:05;101285.59;;;11.69;50.86
22206;BME280;11272;50.104;8.754;2023-05-19T02:25:34;101289.16;;;11.68;50.72
22206;BME280;11272;50.104;8.754;2023-05-19T02:27:59;101288.28;;;11.66;51.27
22206;BME280;11272;50.104;8.754;2023-05-19T02:30:28;101285.66;;;11.63;50.75
22206;BME280;11272;50.104;8.754;2023-05-19T02:32:58;101290.13;;;11.61;51.02
22206;BME280;11272;50.104;8.754;2023-05-19T02:35:24;101285.72;;;11.58;51.35
22206;BME280;11272;50.104;8.754;2023-05-19T02:37:50;101286.63;;;11.57;51.16
22206;BME280;11272;50.104;8.754;2023-05-19T02:40:17;101284.88;;;11.55;51.56
22206;BME280;11272;50.104;8.754;2023-05-19T02:42:42;101277.81;;;11.52;51.65
22206;BME280;11272;50.104;8.754;2023-05-19T02:45:08;101270.72;;;11.50;51.63
22206;BME280;11272;50.104;8.754;2023-05-19T02:47:34;101267.25;;;11.46;51.77
22206;BME280;11272;50.104;8.754;2023-05-19T02:49:59;101264.59;;;11.45;51.41
22206;BME280;11272;50.104;8.754;2023-05-19T02:52:25;101269.06;;;11.41;51.50
22206;BME280;11272;50.104;8.754;2023-05-19T02:54:50;101266.44;;;11.39;52.06
22206;BME280;11272;50.104;8.754;2023-05-19T02:57:16;101259.34;;;11.38;51.97
22206;BME280;11272;50.104;8.754;2023-05-19T02:59:42;101261.13;;;11.38;51.80
22206;BME280;11272;50.104;8.754;2023-05-19T03:02:08;101262.03;;;11.35;51.76
22206;BME280;11272;50.104;8.754;2023-05-19T03:04:33;101254.97;;;11.33;52.16
22206;BME280;11272;50.104;8.754;2023-05-19T03:07:06;101261.22;;;11.30;52.01
22206;BME280;11272;50.104;8.754;2023-05-19T03:09:38;101264.78;;;11.29;52.55
22206;BME280;11272;50.104;8.754;2023-05-19T03:12:04;101265.66;;;11.28;52.24
22206;BME280;11272;50.104;8.754;2023-05-19T03:14:36;101255.97;;;11.26;52.37
22206;BME280;11272;50.104;8.754;2023-05-19T03:17:03;101265.72;;;11.24;52.17
22206;BME280;11272;50.104;8.754;2023-05-19T03:19:32;101259.53;;;11.22;52.83
22206;BME280;11272;50.104;8.754;2023-05-19T03:22:00;101264.00;;;11.20;52.66
22206;BME280;11272;50.104;8.754;2023-05-19T03:24:26;101264.88;;;11.19;52.91
22206;BME280;11272;50.104;8.754;2023-05-19T03:26:52;101260.47;;;11.18;52.82
22206;BME280;11272;50.104;8.754;2023-05-19T03:29:18;101261.34;;;11.17;52.79
22206;BME280;11272;50.104;8.754;2023-05-19T03:31:44;101267.59;;;11.16;52.57
22206;BME280;11272;50.104;8.754;2023-05-19T03:34:12;101276.47;;;11.15;52.85
22206;BME280;11272;50.104;8.754;2023-05-19T03:36:37;101272.91;;;11.13;52.63
22206;BME280;11272;50.104;8.754;2023-05-19T03:39:07;101279.16;;;11.10;53.42
22206;BME280;11272;50.104;8.754;2023-05-19T03:41:34;101280.06;;;11.11;53.12
22206;BME280;11272;50.104;8.754;2023-05-19T03:44:01;101285.31;;;11.12;53.44
22206;BME280;11272;50.104;8.754;2023-05-19T03:46:26;101286.22;;;11.13;53.67
22206;BME280;11272;50.104;8.754;2023-05-19T03:49:18;101280.91;;;11.13;53.17
22206;BME280;11272;50.104;8.754;2023-05-19T03:51:56;101274.69;;;11.14;53.15
22206;BME280;11272;50.104;8.754;2023-05-19T03:54:42;101282.66;;;11.15;53.15
22206;BME280;11272;50.104;8.754;2023-05-19T03:57:09;101287.03;;;11.18;53.50
22206;BME280;11272;50.104;8.754;2023-05-19T03:59:35;101275.53;;;11.19;53.10
22206;BME280;11272;50.104;8.754;2023-05-19T04:02:03;101283.50;;;11.20;53.21
22206;BME280;11272;50.104;8.754;2023-05-19T04:04:28;101275.47;;;11.22;53.82
22206;BME280;11272;50.104;8.754;2023-05-19T04:06:54;101279.91;;;11.23;53.59
22206;BME280;11272;50.104;8.754;2023-05-19T04:09:20;101279.00;;;11.25;53.54
22206;BME280;11272;50.104;8.754;2023-05-19T04:11:48;101274.56;;;11.24;53.65
22206;BME280;11272;50.104;8.754;2023-05-19T04:14:15;101277.22;;;11.26;53.32
22206;BME280;11272;50.104;8.754;2023-05-19T04:16:42;101278.97;;;11.28;53.54
22206;BME280;11272;50.104;8.754;2023-05-19T04:19:08;101274.53;;;11.29;53.87
22206;BME280;11272;50.104;8.754;2023-05-19T04:21:34;101278.06;;;11.31;53.39
22206;BME280;11272;50.104;8.754;2023-05-19T04:23:59;101286.88;;;11.33;53.77
22206;BME280;11272;50.104;8.754;2023-05-19T04:26:25;101280.66;;;11.34;53.59
22206;BME280;11272;50.104;8.754;2023-05-19T04:28:55;101288.63;;;11.37;53.89
22206;BME280;11272;50.104;8.754;2023-05-19T04:31:22;101285.03;;;11.39;53.87
22206;BME280;11272;50.104;8.754;2023-05-19T04:33:48;101283.25;;;11.42;53.78
22206;BME280;11272;50.104;8.754;2023-05-19T04:36:14;101279.66;;;11.44;53.49
22206;BME280;11272;50.104;8.754;2023-05-19T04:38:43;101277.00;;;11.46;53.42
22206;BME280;11272;50.104;8.754;2023-05-19T04:41:11;101280.50;;;11.49;53.64
22206;BME280;11272;50.104;8.754;2023-05-19T04:43:38;101284.91;;;11.52;53.72
22206;BME280;11272;50.104;8.754;2023-05-19T04:46:07;101286.63;;;11.54;53.52
22206;BME280;11272;50.104;8.754;2023-05-19T04:48:35;101294.59;;;11.57;53.79
22206;BME280;11272;50.104;8.754;2023-05-19T04:51:02;101297.25;;;11.59;53.65
22206;BME280;11272;50.104;8.754;2023-05-19T04:53:29;101289.22;;;11.63;53.71
22206;BME280;11272;50.104;8.754;2023-05-19T04:55:56;101289.16;;;11.65;53.65
22206;BME280;11272;50.104;8.754;2023-05-19T04:58:22;101297.13;;;11.69;53.68
22206;BME280;11272;50.104;8.754;2023-05-19T05:00:51;101302.41;;;11.74;53.72
22206;BME280;11272;50.104;8.754;2023-05-19T05:03:17;101301.47;;;11.78;53.83
22206;BME280;11272;50.104;8.754;2023-05-19T05:05:44;101294.31;;;11.85;53.81
22206;BME280;11272;50.104;8.754;2023-05-19T05:08:10;101295.13;;;11.90;53.64
22206;BME280;11272;50.104;8.754;2023-05-19T05:10:39;101293.22;;;11.98;53.51
22206;BME280;11272;50.104;8.754;2023-05-19T05:13:06;101304.63;;;12.07;53.52
22206;BME280;11272;50.104;8.754;2023-05-19T05:15:32;101294.75;;;12.17;53.61
22206;BME280;11272;50.104;8.754;2023-05-19T05:18:00;101297.22;;;12.31;53.61
22206;BME280;11272;50.104;8.754;2023-05-19T05:20:26;101279.28;;;12.43;53.38
22206;BME280;11272;50.104;8.754;2023-05-19T05:22:52;101287.94;;;12.56;53.12
22206;BME280;11272;50.104;8.754;2023-05-19T05:25:20;101288.66;;;12.67;52.90
22206;BME280;11272;50.104;8.754;2023-05-19T05:27:47;101281.34;;;12.78;53.00
22206;BME280;11272;50.104;8.754;2023-05-19T05:30:13;101278.56;;;12.87;52.68
22206;BME280;11272;50.104;8.754;2023-05-19T05:32:39;101285.50;;;12.94;52.63
22206;BME280;11272;50.104;8.754;2023-05-19T05:35:11;101280.97;;;13.01;52.69
22206;BME280;11272;50.104;8.754;2023-05-19T05:37:38;101285.28;;;13.08;52.31
22206;BME280;11272;50.104;8.754;2023-05-19T05:40:04;101280.72;;;13.16;52.24
22206;BME280;11272;50.104;8.754;2023-05-19T05:42:32;101278.81;;;13.24;52.27
22206;BME280;11272;50.104;8.754;2023-05-19T05:44:58;101281.19;;;13.38;52.07
22206;BME280;11272;50.104;8.754;2023-05-19T05:47:24;101277.44;;;13.48;51.55
22206;BME280;11272;50.104;8.754;2023-05-19T05:49:52;101274.44;;;13.63;51.83
22206;BME280;11272;50.104;8.754;2023-05-19T05:52:20;101281.19;;;13.82;51.40
22206;BME280;11272;50.104;8.754;2023-05-19T05:54:47;101285.19;;;14.03;51.44
22206;BME280;11272;50.104;8.754;2023-05-19T05:57:16;101275.84;;;14.22;51.07
22206;BME280;11272;50.104;8.754;2023-05-19T05:59:42;101276.38;;;14.40;50.77
22206;BME280;11272;50.104;8.754;2023-05-19T06:02:10;101272.41;;;14.56;50.59
22206;BME280;11272;50.104;8.754;2023-05-19T06:04:41;101273.66;;;14.78;50.31
22206;BME280;11272;50.104;8.754;2023-05-19T06:07:07;101280.28;;;14.97;50.11
22206;BME280;11272;50.104;8.754;2023-05-19T06:09:35;101271.69;;;15.18;49.45
22206;BME280;11272;50.104;8.754;2023-05-19T06:12:03;101268.53;;;15.35;49.23
22206;BME280;11272;50.104;8.754;2023-05-19T06:14:34;101265.44;;;15.52;49.24
22206;BME280;11272;50.104;8.754;2023-05-19T06:17:18;101259.28;;;15.79;48.70
22206;BME280;11272;50.104;8.754;2023-05-19T06:19:44;101261.13;;;16.07;48.27
22206;BME280;11272;50.104;8.754;2023-05-19T06:22:10;101263.91;;;16.31;48.04
22206;BME280;11272;50.104;8.754;2023-05-19T06:24:36;101263.19;;;16.54;47.49
22206;BME280;11272;50.104;8.754;2023-05-19T06:27:02;101264.44;;;16.72;47.21
22206;BME280;11272;50.104;8.754;2023-05-19T06:29:29;101261.47;;;16.79;46.58
22206;BME280;11272;50.104;8.754;2023-05-19T06:31:58;101262.13;;;16.88;46.58
22206;BME280;11272;50.104;8.754;2023-05-19T06:34:24;101266.00;;;16.77;46.19
22206;BME280;11272;50.104;8.754;2023-05-19T06:36:50;101271.59;;;16.71;46.38
22206;BME280;11272;50.104;8.754;2023-05-19T06:39:18;101266.16;;;16.73;46.17
22206;BME280;11272;50.104;8.754;2023-05-19T06:41:45;101265.09;;;16.78;46.26
22206;BME280;11272;50.104;8.754;2023-05-19T06:44:25;101267.47;;;16.88;46.17
22206;BME280;11272;50.104;8.754;2023-05-19T06:46:52;101266.13;;;17.01;45.89
22206;BME280;11272;50.104;8.754;2023-05-19T06:49:19;101263.81;;;17.15;45.48
22206;BME280;11272;50.104;8.754;2023-05-19T06:51:46;101265.97;;;17.30;45.68
22206;BME280;11272;50.104;8.754;2023-05-19T06:54:13;101259.53;;;17.60;45.31
22206;BME280;11272;50.104;8.754;2023-05-19T06:56:40;101263.72;;;17.91;44.82
22206;BME280;11272;50.104;8.754;2023-05-19T06:59:06;101253.91;;;18.13;44.43
22206;BME280;11272;50.104;8.754;2023-05-19T07:01:35;101249.44;;;18.35;43.92
22206;BME280;11272;50.104;8.754;2023-05-19T07:04:02;101240.88;;;18.47;43.55
22206;BME280;11272;50.104;8.754;2023-05-19T07:06:28;101250.69;;;18.70;43.16
22206;BME280;11272;50.104;8.754;2023-05-19T07:08:54;101252.34;;;18.74;42.89
22206;BME280;11272;50.104;8.754;2023-05-19T07:11:20;101243.75;;;18.65;42.56
22206;BME280;11272;50.104;8.754;2023-05-19T07:13:47;101245.00;;;18.56;42.66
22206;BME280;11272;50.104;8.754;2023-05-19T07:16:18;101242.44;;;18.75;42.45
22206;BME280;11272;50.104;8.754;2023-05-19T07:18:45;101234.84;;;19.05;42.24
22206;BME280;11272;50.104;8.754;2023-05-19T07:21:10;101232.13;;;19.47;42.17
22206;BME280;11272;50.104;8.754;2023-05-19T07:23:37;101224.50;;;19.94;41.60
22206;BME280;11272;50.104;8.754;2023-05-19T07:26:02;101208.34;;;20.12;40.44
22206;BME280;11272;50.104;8.754;2023-05-19T07:28:28;101223.06;;;20.05;40.49
22206;BME280;11272;50.104;8.754;2023-05-19T07:30:54;101225.16;;;20.17;40.48
22206;BME280;11272;50.104;8.754;2023-05-19T07:33:20;101219.88;;;20.52;39.96
22206;BME280;11272;50.104;8.754;2023-05-19T07:35:46;101222.16;;;20.61;39.56
22206;BME280;11272;50.104;8.754;2023-05-19T07:38:16;101216.66;;;20.80;39.34
22206;BME280;11272;50.104;8.754;2023-05-19T07:40:42;101213.19;;;20.95;39.12
22206;BME280;11272;50.104;8.754;2023-05-19T07:43:08;101208.66;;;21.13;38.80
22206;BME280;11272;50.104;8.754;2023-05-19T07:45:34;101201.84;;;21.23;38.52
22206;BME280;11272;50.104;8.754;2023-05-19T07:47:59;101200.00;;;21.40;38.20
22206;BME280;11272;50.104;8.754;2023-05-19T07:50:25;101199.69;;;21.62;38.28
22206;BME280;11272;50.104;8.754;2023-05-19T07:52:51;101196.22;;;21.92;37.95
22206;BME280;11272;50.104;8.754;2023-05-19T07:55:17;101193.75;;;22.20;37.77
22206;BME280;11272;50.104;8.754;2023-05-19T07:57:43;101189.59;;;22.44;37.42
22206;BME280;11272;50.104;8.754;2023-05-19T08:00:09;101189.13;;;22.67;36.90
22206;BME280;11272;50.104;8.754;2023-05-19T08:02:40;101178.13;;;22.86;36.34
22206;BME280;11272;50.104;8.754;2023-05-19T08:05:06;101184.81;;;22.95;36.17
22206;BME280;11272;50.104;8.754;2023-05-19T08:07:34;101179.53;;;23.22;35.73
22206;BME280;11272;50.104;8.754;2023-05-19T08:10:01;101176.72;;;23.37;35.51
22206;BME280;11272;50.104;8.754;2023-05-19T08:12:28;101180.72;;;23.74;35.03
22206;BME280;11272;50.104;8.754;2023-05-19T08:14:54;101175.22;;;24.17;34.74
22206;BME280;11272;50.104;8.754;2023-05-19T08:17:20;101180.47;;;24.47;34.16
22206;BME280;11272;50.104;8.754;2023-05-19T08:19:46;101179.88;;;24.68;33.51
22206;BME280;11272;50.104;8.754;2023-05-19T08:22:12;101176.72;;;24.89;33.20
22206;BME280;11272;50.104;8.754;2023-05-19T08:24:37;101174.78;;;25.03;32.92
22206;BME280;11272;50.104;8.754;2023-05-19T08:27:03;101174.06;;;25.27;32.25
22206;BME280;11272;50.104;8.754;2023-05-19T08:29:29;101163.28;;;25.63;31.87
22206;BME280;11272;50.104;8.754;2023-05-19T08:31:56;101168.31;;;26.06;31.46
22206;BME280;11272;50.104;8.754;2023-05-19T08:34:22;101162.28;;;26.26;30.88
22206;BME280;11272;50.104;8.754;2023-05-19T08:36:48;101165.94;;;26.37;30.23
22206;BME280;11272;50.104;8.754;2023-05-19T08:39:15;101151.81;;;26.67;30.13
22206;BME280;11272;50.104;8.754;2023-05-19T08:41:44;101151.66;;;26.93;29.85
22206;BME280;11272;50.104;8.754;2023-05-19T08:44:09;101147.38;;;27.01;29.22
22206;BME280;11272;50.104;8.754;2023-05-19T08:46:36;101146.75;;;27.09;28.87
22206;BME280;11272;50.104;8.754;2023-05-19T08:49:12;101146.53;;;27.12;28.84
22206;BME280;11272;50.104;8.754;2023-05-19T08:54:37;101128.94;;;27.49;28.27
22206;BME280;11272;50.104;8.754;2023-05-19T08:57:06;101126.63;;;27.67;27.89
22206;BME280;11272;50.104;8.754;2023-05-19T08:59:32;101126.44;;;27.91;27.40
22206;BME280;11272;50.104;8.754;2023-05-19T09:01:59;101128.25;;;28.24;27.19
22206;BME280;11272;50.104;8.754;2023-05-19T09:04:25;101124.59;;;28.45;26.57
22206;BME280;11272;50.104;8.754;2023-05-19T09:06:52;101120.66;;;28.59;25.97
22206;BME280;11272;50.104;8.754;2023-05-19T09:09:18;101116.94;;;28.60;25.83
22206;BME280;11272;50.104;8.754;2023-05-19T09:11:45;101111.59;;;28.59;25.52
22206;BME280;11272;50.104;8.754;2023-05-19T09:14:11;101103.13;;;28.62;25.40
22206;BME280;11272;50.104;8.754;2023-05-19T09:16:37;101110.50;;;28.82;25.00
22206;BME280;11272;50.104;8.754;2023-05-19T09:19:03;101113.72;;;28.87;24.84
22206;BME280;11272;50.104;8.754;2023-05-19T09:21:30;101108.91;;;29.00;24.24
22206;BME280;11272;50.104;8.754;2023-05-19T09:24:03;101101.69;;;28.99;24.16
22206;BME280;11272;50.104;8.754;2023-05-19T09:26:40;101106.72;;;29.24;24.54
22206;BME280;11272;50.104;8.754;2023-05-19T09:29:16;101105.38;;;29.40;24.03
22206;BME280;11272;50.104;8.754;2023-05-19T09:34:14;101100.63;;;29.72;23.62
22206;BME280;11272;50.104;8.754;2023-05-19T09:36:41;101094.94;;;30.04;23.26
22206;BME280;11272;50.104;8.754;2023-05-19T09:41:54;101084.84;;;29.55;23.08
22206;BME280;11272;50.104;8.754;2023-05-19T09:44:35;101092.91;;;29.26;22.82
22206;BME280;11272;50.104;8.754;2023-05-19T09:47:02;101085.78;;;29.35;23.33
22206;BME280;11272;50.104;8.754;2023-05-19T09:49:28;101082.81;;;29.47;23.27
22206;BME280;11272;50.104;8.754;2023-05-19T09:51:55;101076.53;;;29.66;22.97
22206;BME280;11272;50.104;8.754;2023-05-19T09:54:21;101073.91;;;30.14;22.77
22206;BME280;11272;50.104;8.754;2023-05-19T09:57:02;101075.06;;;30.11;22.70
22206;BME280;11272;50.104;8.754;2023-05-19T09:59:29;101068.69;;;29.92;22.44
22206;BME280;11272;50.104;8.754;2023-05-19T10:01:57;101073.53;;;29.69;22.26
22206;BME280;11272;50.104;8.754;2023-05-19T10:04:26;101073.88;;;29.24;22.64
22206;BME280;11272;50.104;8.754;2023-05-19T10:06:53;101068.88;;;28.99;22.56
22206;BME280;11272;50.104;8.754;2023-05-19T10:09:23;101069.53;;;28.92;23.02
22206;BME280;11272;50.104;8.754;2023-05-19T10:11:53;101070.00;;;28.76;23.26
22206;BME280;11272;50.104;8.754;2023-05-19T10:14:24;101081.06;;;28.74;23.30
22206;BME280;11272;50.104;8.754;2023-05-19T10:16:50;101061.28;;;28.82;23.30
22206;BME280;11272;50.104;8.754;2023-05-19T10:19:19;101066.47;;;28.85;23.13
22206;BME280;11272;50.104;8.754;2023-05-19T10:21:45;101074.25;;;28.69;23.43
22206;BME280;11272;50.104;8.754;2023-05-19T10:24:11;101063.28;;;28.80;23.55
22206;BME280;11272;50.104;8.754;2023-05-19T10:26:37;101053.38;;;29.09;23.27
22206;BME280;11272;50.104;8.754;2023-05-19T10:29:04;101054.91;;;29.73;22.92
22206;BME280;11272;50.104;8.754;2023-05-19T10:31:30;101044.34;;;30.18;23.05
22206;BME280;11272;50.104;8.754;2023-05-19T10:34:12;101047.50;;;30.61;22.38
22206;BME280;11272;50.104;8.754;2023-05-19T10:36:48;101042.91;;;30.71;21.96
22206;BME280;11272;50.104;8.754;2023-05-19T10:39:21;101048.94;;;30.36;21.72
22206;BME280;11272;50.104;8.754;2023-05-19T10:41:55;101036.28;;;30.06;22.28
22206;BME280;11272;50.104;8.754;2023-05-19T10:44:46;101042.97;;;29.83;22.34
22206;BME280;11272;50.104;8.754;2023-05-19T10:47:22;101042.09;;;29.73;22.32
22206;BME280;11272;50.104;8.754;2023-05-19T10:49:51;101028.66;;;29.60;22.55
22206;BME280;11272;50.104;8.754;2023-05-19T10:52:19;101030.25;;;29.63;22.64
22206;BME280;11272;50.104;8.754;2023-05-19T10:54:50;101026.53;;;29.74;22.39
22206;BME280;11272;50.104;8.754;2023-05-19T10:57:27;101025.03;;;29.60;22.88
22206;BME280;11272;50.104;8.754;2023-05-19T10:59:56;101022.59;;;29.47;22.87
22206;BME280;11272;50.104;8.754;2023-05-19T11:02:37;101012.34;;;29.49;23.06
22206;BME280;11272;50.104;8.754;2023-05-19T11:05:13;101022.19;;;29.71;22.58
22206;BME280;11272;50.104;8.754;2023-05-19T11:07:41;101015.63;;;29.93;23.06
22206;BME280;11272;50.104;8.754;2023-05-19T11:10:10;101012.75;;;30.33;22.62
22206;BME280;11272;50.104;8.754;2023-05-19T11:12:44;101015.16;;;30.74;22.66
22206;BME280;11272;50.104;8.754;2023-05-19T11:15:14;101012.97;;;30.87;22.02
22206;BME280;11272;50.104;8.754;2023-05-19T11:17:41;101012.09;;;30.77;22.31
22206;BME280;11272;50.104;8.754;2023-05-19T11:20:08;101005.91;;;31.22;22.42
22206;BME280;11272;50.104;8.754;2023-05-19T11:28:10;100998.56;;;32.30;21.09
22206;BME280;11272;50.104;8.754;2023-05-19T11:30:44;100982.91;;;32.31;20.85
22206;BME280;11272;50.104;8.754;2023-05-19T11:33:12;100990.59;;;32.45;20.76
22206;BME280;11272;50.104;8.754;2023-05-19T11:35:38;100992.44;;;32.88;20.80
22206;BME280;11272;50.104;8.754;2023-05-19T11:38:06;100998.72;;;32.72;20.55
22206;BME280;11272;50.104;8.754;2023-05-19T11:40:35;100995.84;;;32.82;20.46
22206;BME280;11272;50.104;8.754;2023-05-19T11:43:00;100985.66;;;33.00;20.27
22206;BME280;11272;50.104;8.754;2023-05-19T11:45:27;100985.16;;;33.13;20.07
22206;BME280;11272;50.104;8.754;2023-05-19T11:47:54;100982.69;;;32.68;20.19
22206;BME280;11272;50.104;8.754;2023-05-19T11:50:21;100984.41;;;32.25;20.62
22206;BME280;11272;50.104;8.754;2023-05-19T11:52:47;100973.78;;;31.95;20.90
22206;BME280;11272;50.104;8.754;2023-05-19T11:55:16;100973.25;;;32.09;20.79
22206;BME280;11272;50.104;8.754;2023-05-19T11:58:02;100969.56;;;32.62;20.56
22206;BME280;11272;50.104;8.754;2023-05-19T12:00:36;100965.97;;;32.43;20.75
22206;BME280;11272;50.104;8.754;2023-05-19T12:03:03;100961.63;;;31.80;20.81
22206;BME280;11272;50.104;8.754;2023-05-19T12:05:29;100970.53;;;31.19;21.29
22206;BME280;11272;50.104;8.754;2023-05-19T12:07:56;100965.72;;;30.84;21.36
22206;BME280;11272;50.104;8.754;2023-05-19T12:10:26;100960.34;;;30.55;21.70
22206;BME280;11272;50.104;8.754;2023-05-19T12:12:54;100965.13;;;30.53;22.07
22206;BME280;11272;50.104;8.754;2023-05-19T12:15:20;100967.72;;;30.91;22.08
22206;BME280;11272;50.104;8.754;2023-05-19T12:17:57;100979.81;;;30.71;21.84
22206;BME280;11272;50.104;8.754;2023-05-19T12:20:24;100966.31;;;30.22;21.94
22206;BME280;11272;50.104;8.754;2023-05-19T12:22:51;100971.47;;;29.86;22.28
22206;BME280;11272;50.104;8.754;2023-05-19T12:25:17;100957.06;;;29.84;22.84
22206;BME280;11272;50.104;8.754;2023-05-19T12:27:45;100971.75;;;29.83;22.69
22206;BME280;11272;50.104;8.754;2023-05-19T12:30:13;100977.09;;;30.13;22.70
22206;BME280;11272;50.104;8.754;2023-05-19T12:32:39;100968.25;;;30.68;22.50
22206;BME280;11272;50.104;8.754;2023-05-19T12:35:05;100957.97;;;30.79;22.26
22206;BME280;11272;50.104;8.754;2023-05-19T12:37:32;100961.66;;;30.51;22.47
22206;BME280;11272;50.104;8.754;2023-05-19T12:39:59;100960.81;;;30.02;22.51
22206;BME280;11272;50.104;8.754;2023-05-19T12:42:26;100966.66;;;29.50;22.63
22206;BME280;11272;50.104;8.754;2023-05-19T12:45:02;100962.00;;;29.31;22.96
22206;BME280;11272;50.104;8.754;2023-05-19T12:47:32;100957.56;;;29.00;23.40
22206;BME280;11272;50.104;8.754;2023-05-19T12:52:25;100960.81;;;28.42;24.15
22206;BME280;11272;50.104;8.754;2023-05-19T12:55:01;100952.81;;;28.09;24.29
22206;BME280;11272;50.104;8.754;2023-05-19T12:57:32;100949.34;;;28.07;24.58
22206;BME280;11272;50.104;8.754;2023-05-19T13:00:12;100952.44;;;28.34;24.49
22206;BME280;11272;50.104;8.754;2023-05-19T13:05:19;100951.44;;;28.77;24.10
22206;BME280;11272;50.104;8.754;2023-05-19T13:07:56;100943.81;;;28.80;24.03
22206;BME280;11272;50.104;8.754;2023-05-19T13:10:22;100946.09;;;28.55;24.28
22206;BME280;11272;50.104;8.754;2023-05-19T13:12:48;100947.09;;;28.54;24.25
22206;BME280;11272;50.104;8.754;2023-05-19T13:15:33;100952.63;;;28.42;24.29
22206;BME280;11272;50.104;8.754;2023-05-19T13:18:18;100945.53;;;28.30;24.29
22206;BME280;11272;50.104;8.754;2023-05-19T13:20:45;100939.84;;;28.22;24.24
22206;BME280;11272;50.104;8.754;2023-05-19T13:23:12;100928.09;;;28.11;24.52
22206;BME280;11272;50.104;8.754;2023-05-19T13:25:39;100930.22;;;28.07;24.49
22206;BME280;11272;50.104;8.754;2023-05-19T13:28:15;100929.31;;;28.18;24.67
22206;BME280;11272;50.104;8.754;2023-05-19T13:30:48;100926.38;;;28.51;24.44
22206;BME280;11272;50.104;8.754;2023-05-19T13:33:16;100924.06;;;28.77;24.27